Time;durP1;ratioP1;P1;durP2;ratioP2;P2;SDS_P1;SDS_P2;PMS_P1;PMS_P2;Temp;Humidity;BMP_temperature;BMP_pressure;BME280_temperature;BME280_humidity;BME280_pressure;Samples;Min_cycle;Max_cycle;Signal;HPM_P1;HPM_P2
2023/06/22 00:00:50;;;;;;;3.17;2.83;;;18.50;99.90;;;;;;5013868;28;20301;-55
2023/06/22 00:03:18;;;;;;;3.00;2.80;;;18.40;99.90;;;;;;5017152;28;20208;-51
2023/06/22 00:05:46;;;;;;;3.77;3.13;;;18.40;99.90;;;;;;5000609;28;20298;-54
2023/06/22 00:08:13;;;;;;;3.23;2.97;;;18.20;99.90;;;;;;5021554;28;20200;-52
2023/06/22 00:10:40;;;;;;;3.30;3.00;;;18.10;99.90;;;;;;5018363;28;20326;-52
2023/06/22 00:13:09;;;;;;;3.60;3.40;;;18.10;99.90;;;;;;5017136;28;20254;-54
2023/06/22 00:15:36;;;;;;;3.43;3.20;;;18.00;99.90;;;;;;5014404;28;20815;-57
2023/06/22 00:18:03;;;;;;;4.63;3.57;;;17.90;99.90;;;;;;5024814;28;20228;-55
2023/06/22 00:20:30;;;;;;;5.13;3.57;;;17.90;99.90;;;;;;4996341;28;20326;-54
2023/06/22 00:22:58;;;;;;;3.40;3.10;;;18.00;99.90;;;;;;5022584;28;20199;-54
2023/06/22 00:25:25;;;;;;;3.17;2.87;;;18.00;99.90;;;;;;5017399;28;20247;-51
2023/06/22 00:27:52;;;;;;;2.83;2.63;;;18.00;99.90;;;;;;5022902;28;20281;-54
2023/06/22 00:30:20;;;;;;;3.33;3.03;;;18.10;99.90;;;;;;5017005;28;20231;-54
2023/06/22 00:32:47;;;;;;;4.00;2.97;;;18.10;99.90;;;;;;5023148;28;20184;-58
2023/06/22 00:35:15;;;;;;;3.60;3.30;;;18.00;99.90;;;;;;5014505;28;20612;-50
2023/06/22 00:37:42;;;;;;;3.67;3.13;;;18.00;99.90;;;;;;5000038;28;20512;-54
2023/06/22 00:40:10;;;;;;;3.50;3.20;;;17.90;99.90;;;;;;5024395;28;20211;-58
2023/06/22 00:42:37;;;;;;;3.30;3.00;;;17.80;99.90;;;;;;5019427;28;20275;-56
2023/06/22 00:45:05;;;;;;;3.87;3.37;;;17.80;99.90;;;;;;5022864;28;20756;-57
2023/06/22 00:47:35;;;;;;;3.43;3.07;;;17.80;99.90;;;;;;5010384;28;20195;-51
2023/06/22 00:50:02;;;;;;;3.63;3.30;;;17.70;99.90;;;;;;5015998;28;20331;-56
2023/06/22 00:52:30;;;;;;;3.20;2.90;;;17.70;99.90;;;;;;5000051;28;20286;-54
2023/06/22 00:55:01;;;;;;;3.43;3.23;;;17.70;99.90;;;;;;5022531;28;20191;-50
2023/06/22 00:57:28;;;;;;;2.93;2.67;;;17.80;99.90;;;;;;5017311;28;20192;-50
2023/06/22 00:59:56;;;;;;;3.80;3.50;;;17.80;99.90;;;;;;5016566;28;20223;-54
2023/06/22 01:02:23;;;;;;;3.67;3.13;;;17.70;99.90;;;;;;5013221;28;20212;-52
2023/06/22 01:04:51;;;;;;;3.70;3.40;;;17.70;99.90;;;;;;5021910;28;20239;-55
2023/06/22 01:07:27;;;;;;;3.67;3.10;;;17.60;99.90;;;;;;4995941;28;20682;-55
2023/06/22 01:10:00;;;;;;;5.13;3.23;;;17.60;99.90;;;;;;5022497;28;20227;-57
2023/06/22 01:12:30;;;;;;;4.07;3.30;;;17.60;99.90;;;;;;5013132;28;20199;-53
2023/06/22 01:15:05;;;;;;;3.40;3.07;;;17.60;99.90;;;;;;5022924;28;20184;-55
2023/06/22 01:17:33;;;;;;;3.50;3.17;;;17.60;99.90;;;;;;5012193;28;20211;-57
2023/06/22 01:20:05;;;;;;;3.53;3.23;;;17.60;99.90;;;;;;5022552;28;20223;-54
2023/06/22 01:22:41;;;;;;;3.83;3.43;;;17.50;99.90;;;;;;4993653;28;20353;-56
2023/06/22 01:25:14;;;;;;;3.90;3.57;;;17.50;99.90;;;;;;5017580;28;20295;-56
2023/06/22 01:27:53;;;;;;;3.57;3.27;;;17.50;99.90;;;;;;5018416;28;20180;-55
2023/06/22 01:30:21;;;;;;;4.77;3.47;;;17.60;99.90;;;;;;5013314;28;20212;-52
2023/06/22 01:32:49;;;;;;;4.97;3.60;;;17.50;99.90;;;;;;5021140;28;20215;-56
2023/06/22 01:35:16;;;;;;;3.50;3.20;;;17.50;99.90;;;;;;5010258;28;20199;-51
2023/06/22 01:37:44;;;;;;;3.87;3.50;;;17.40;99.90;;;;;;5006243;28;20230;-51
2023/06/22 01:40:12;;;;;;;5.10;3.70;;;17.40;99.90;;;;;;5000677;28;20240;-49
2023/06/22 01:42:39;;;;;;;4.37;3.67;;;17.40;99.90;;;;;;5021282;28;20242;-54
2023/06/22 01:45:09;;;;;;;3.87;3.47;;;17.40;99.90;;;;;;5021751;28;20251;-54
2023/06/22 01:47:40;;;;;;;3.30;3.10;;;17.40;99.90;;;;;;5016686;28;20226;-53
2023/06/22 01:50:08;;;;;;;3.50;3.20;;;17.50;99.90;;;;;;5015481;28;20227;-51
2023/06/22 01:52:34;;;;;;;3.97;3.67;;;17.50;99.90;;;;;;5020062;28;20195;-55
2023/06/22 01:55:01;;;;;;;4.80;3.73;;;17.50;99.90;;;;;;4998402;28;20204;-54
2023/06/22 01:57:28;;;;;;;3.70;3.40;;;17.50;99.90;;;;;;5018431;28;20681;-57
2023/06/22 02:00:01;;;;;;;5.20;3.60;;;17.40;99.90;;;;;;5015158;28;20223;-54
2023/06/22 02:02:32;;;;;;;8.13;3.97;;;17.40;99.90;;;;;;5018809;28;20184;-54
2023/06/22 02:05:06;;;;;;;4.27;3.50;;;17.30;99.90;;;;;;5012112;28;20277;-54
2023/06/22 02:07:37;;;;;;;4.00;3.70;;;17.20;99.90;;;;;;5023819;28;20199;-55
2023/06/22 02:10:07;;;;;;;5.17;3.87;;;17.30;99.90;;;;;;5004889;28;20296;-51
2023/06/22 02:12:36;;;;;;;3.80;3.47;;;17.30;99.90;;;;;;5020010;28;20184;-56
2023/06/22 02:15:04;;;;;;;4.43;4.00;;;17.30;99.90;;;;;;5026100;28;20196;-50
2023/06/22 02:17:32;;;;;;;4.20;3.80;;;17.30;99.90;;;;;;5024271;28;20281;-53
2023/06/22 02:20:04;;;;;;;4.73;4.17;;;17.40;99.90;;;;;;5026175;28;20204;-51
2023/06/22 02:22:31;;;;;;;4.33;3.93;;;17.40;99.90;;;;;;5015434;28;20227;-53
2023/06/22 02:24:58;;;;;;;4.57;4.07;;;17.30;99.90;;;;;;5021908;28;20698;-54
2023/06/22 02:27:25;;;;;;;3.77;3.47;;;17.30;99.90;;;;;;5003974;28;20203;-55
2023/06/22 02:29:52;;;;;;;4.00;3.60;;;17.20;99.90;;;;;;5026669;28;20273;-55
2023/06/22 02:32:19;;;;;;;4.60;3.20;;;17.30;99.90;;;;;;5021654;28;20200;-52
2023/06/22 02:34:47;;;;;;;4.63;3.93;;;17.30;99.90;;;;;;5021083;28;20196;-48
2023/06/22 02:37:18;;;;;;;5.47;3.60;;;17.20;99.90;;;;;;5009974;28;20211;-48
2023/06/22 02:39:45;;;;;;;4.10;3.77;;;17.20;99.90;;;;;;5025375;28;20751;-55
2023/06/22 02:42:12;;;;;;;3.57;3.27;;;17.20;99.90;;;;;;5005030;28;20255;-51
2023/06/22 02:44:39;;;;;;;4.57;4.17;;;17.20;99.90;;;;;;5023843;28;20250;-54
2023/06/22 02:47:06;;;;;;;3.70;3.40;;;17.20;99.90;;;;;;5020293;28;20289;-50
2023/06/22 02:49:33;;;;;;;4.70;4.20;;;17.20;99.90;;;;;;5023260;28;20204;-56
2023/06/22 02:52:00;;;;;;;5.17;3.83;;;17.20;99.90;;;;;;5025256;28;20207;-52
2023/06/22 02:54:29;;;;;;;5.63;3.93;;;17.20;99.90;;;;;;5015756;28;20211;-56
2023/06/22 02:56:55;;;;;;;3.83;3.43;;;17.20;99.90;;;;;;5007193;28;20200;-53
2023/06/22 02:59:24;;;;;;;4.53;3.70;;;17.20;99.90;;;;;;5010648;28;20311;-54
2023/06/22 03:01:53;;;;;;;3.40;3.20;;;17.00;99.90;;;;;;5023019;28;20184;-54
2023/06/22 03:04:25;;;;;;;4.17;3.67;;;16.90;99.90;;;;;;5020102;28;20270;-55
2023/06/22 03:06:52;;;;;;;5.40;4.10;;;16.90;99.90;;;;;;5024626;28;20662;-57
2023/06/22 03:09:18;;;;;;;4.23;3.80;;;16.90;99.90;;;;;;5014240;28;20192;-49
2023/06/22 03:11:47;;;;;;;4.27;3.87;;;16.90;99.90;;;;;;5018609;28;20192;-56
2023/06/22 03:14:13;;;;;;;4.23;3.83;;;16.90;99.90;;;;;;5002081;28;20265;-50
2023/06/22 03:16:41;;;;;;;4.77;4.37;;;16.90;99.90;;;;;;5024612;28;20188;-56
2023/06/22 03:19:08;;;;;;;5.03;4.07;;;16.80;99.90;;;;;;5022795;28;20250;-55
2023/06/22 03:21:35;;;;;;;4.83;4.40;;;16.80;99.90;;;;;;5022477;28;20344;-55
2023/06/22 03:24:01;;;;;;;4.00;3.70;;;16.80;99.90;;;;;;5019046;28;20254;-53
2023/06/22 03:26:29;;;;;;;4.93;3.80;;;16.70;99.90;;;;;;5014324;28;20224;-57
2023/06/22 03:28:59;;;;;;;4.83;4.37;;;16.70;99.90;;;;;;5004968;28;20223;-52
2023/06/22 03:31:29;;;;;;;4.27;3.87;;;16.80;99.90;;;;;;5027025;28;20251;-55
2023/06/22 03:33:56;;;;;;;4.80;4.40;;;16.80;99.90;;;;;;5009998;28;20298;-53
2023/06/22 03:36:24;;;;;;;5.53;4.83;;;16.80;99.90;;;;;;5018211;28;20184;-57
2023/06/22 03:38:52;;;;;;;5.07;4.57;;;16.90;99.90;;;;;;5024639;28;20199;-55
2023/06/22 03:41:19;;;;;;;4.10;3.80;;;16.90;99.90;;;;;;5010006;28;20929;-55
2023/06/22 03:43:47;;;;;;;4.27;3.97;;;16.90;99.90;;;;;;5023154;28;20193;-57
2023/06/22 03:46:17;;;;;;;5.93;4.87;;;16.90;99.90;;;;;;4997884;28;20228;-53
2023/06/22 03:48:44;;;;;;;4.83;4.43;;;16.90;99.90;;;;;;5019216;28;20180;-55
2023/06/22 03:51:11;;;;;;;4.67;4.00;;;16.90;99.90;;;;;;5019761;28;20223;-55
2023/06/22 03:53:37;;;;;;;5.40;3.80;;;17.00;99.90;;;;;;5024013;28;20203;-55
2023/06/22 03:56:05;;;;;;;4.80;4.23;;;17.00;99.90;;;;;;5015977;28;20200;-53
2023/06/22 03:58:32;;;;;;;5.72;5.13;;;17.00;99.90;;;;;;5018407;28;20437;-54
2023/06/22 04:00:59;;;;;;;4.43;4.13;;;17.40;99.90;;;;;;4992871;28;20665;-56
2023/06/22 04:03:28;;;;;;;4.57;4.23;;;17.20;99.90;;;;;;5021763;28;20583;-54
2023/06/22 04:05:54;;;;;;;5.07;4.67;;;17.10;99.90;;;;;;5024485;28;20219;-56
2023/06/22 04:08:21;;;;;;;4.40;4.00;;;17.10;99.90;;;;;;5016625;28;20608;-53
2023/06/22 04:10:48;;;;;;;4.77;4.33;;;17.10;99.90;;;;;;5018316;28;20259;-53
2023/06/22 04:13:15;;;;;;;5.07;4.63;;;17.20;99.90;;;;;;5017209;28;20359;-50
2023/06/22 04:15:42;;;;;;;4.83;4.33;;;17.30;99.90;;;;;;4995794;28;20392;-57
2023/06/22 04:18:08;;;;;;;7.53;5.10;;;17.30;99.90;;;;;;5024273;28;20216;-49
2023/06/22 04:20:37;;;;;;;4.60;4.20;;;17.30;99.90;;;;;;5020721;28;20223;-55
2023/06/22 04:23:03;;;;;;;5.83;5.20;;;17.30;99.90;;;;;;5007512;28;20586;-55
2023/06/22 04:25:30;;;;;;;5.53;5.03;;;17.30;99.90;;;;;;5020476;28;20273;-55
2023/06/22 04:27:57;;;;;;;6.60;5.77;;;17.30;99.90;;;;;;5016253;28;20290;-55
2023/06/22 04:30:24;;;;;;;6.30;4.97;;;17.30;99.90;;;;;;5003233;28;20216;-53
2023/06/22 04:32:55;;;;;;;6.33;5.23;;;17.40;99.90;;;;;;5023371;28;20250;-56
2023/06/22 04:35:23;;;;;;;5.70;4.10;;;17.40;99.90;;;;;;5014440;28;20294;-55
2023/06/22 04:37:54;;;;;;;5.57;4.80;;;17.40;99.90;;;;;;5007969;28;20211;-57
2023/06/22 04:40:22;;;;;;;5.93;5.33;;;17.50;99.90;;;;;;5014478;28;20220;-56
2023/06/22 04:42:52;;;;;;;6.67;5.93;;;17.50;99.90;;;;;;5024291;28;20199;-56
2023/06/22 04:45:20;;;;;;;5.63;5.10;;;17.60;99.90;;;;;;5011890;28;20204;-53
2023/06/22 04:47:47;;;;;;;6.67;5.93;;;17.60;99.90;;;;;;4992147;28;20627;-55
2023/06/22 04:50:14;;;;;;;7.50;5.57;;;17.60;99.90;;;;;;5020217;28;20285;-51
2023/06/22 04:52:41;;;;;;;6.67;5.70;;;17.70;99.90;;;;;;5018466;28;20275;-55
2023/06/22 04:55:09;;;;;;;9.70;6.10;;;17.70;99.90;;;;;;5014832;28;20196;-51
2023/06/22 04:57:39;;;;;;;6.83;5.43;;;17.80;99.90;;;;;;5020580;28;20196;-51
2023/06/22 05:00:12;;;;;;;5.10;4.67;;;17.80;99.90;;;;;;5011722;28;20306;-49
2023/06/22 05:02:39;;;;;;;6.73;4.47;;;17.90;99.90;;;;;;5000833;28;20211;-57
2023/06/22 05:05:07;;;;;;;5.43;4.50;;;17.90;99.90;;;;;;5021313;28;20720;-53
2023/06/22 05:07:34;;;;;;;7.23;5.50;;;18.00;99.90;;;;;;5022309;28;20436;-57
2023/06/22 05:10:01;;;;;;;5.20;4.50;;;18.00;99.90;;;;;;5006007;28;20255;-47
2023/06/22 05:12:30;;;;;;;5.03;4.57;;;18.00;99.90;;;;;;5018834;28;20281;-55
2023/06/22 05:14:57;;;;;;;5.83;4.83;;;18.10;99.90;;;;;;5016884;28;20208;-47
2023/06/22 05:17:25;;;;;;;5.73;4.43;;;18.20;99.90;;;;;;4999570;28;20208;-58
2023/06/22 05:19:52;;;;;;;9.00;5.67;;;18.20;99.90;;;;;;5022349;28;20614;-57
2023/06/22 05:22:19;;;;;;;3.77;3.43;;;18.30;99.90;;;;;;5014152;28;20270;-57
2023/06/22 05:24:47;;;;;;;5.63;4.50;;;18.30;99.90;;;;;;5016616;28;20199;-58
2023/06/22 05:27:14;;;;;;;4.73;4.20;;;18.40;99.90;;;;;;5011273;28;20230;-50
2023/06/22 05:29:43;;;;;;;3.90;3.60;;;18.50;99.90;;;;;;5016551;28;20224;-58
2023/06/22 05:32:11;;;;;;;7.10;4.23;;;18.50;99.90;;;;;;5020069;28;20198;-52
2023/06/22 05:34:38;;;;;;;8.40;4.07;;;18.50;99.90;;;;;;4997115;28;20309;-55
2023/06/22 05:37:06;;;;;;;14.57;5.27;;;18.50;99.90;;;;;;5020400;28;20752;-53
2023/06/22 05:39:33;;;;;;;5.80;4.10;;;18.60;99.90;;;;;;5014503;28;20301;-56
2023/06/22 05:42:00;;;;;;;5.73;3.70;;;18.60;99.90;;;;;;5016588;28;20218;-53
2023/06/22 05:44:26;;;;;;;7.77;4.00;;;18.70;99.90;;;;;;5013875;28;20207;-53
2023/06/22 05:46:55;;;;;;;5.63;3.27;;;18.80;99.90;;;;;;5016841;28;20213;-56
2023/06/22 05:49:22;;;;;;;4.93;3.37;;;18.80;99.90;;;;;;4998227;28;20988;-53
2023/06/22 05:51:49;;;;;;;6.67;3.27;;;18.90;99.90;;;;;;5022601;28;20192;-55
2023/06/22 05:54:17;;;;;;;4.20;3.00;;;19.00;99.90;;;;;;5018996;28;20939;-56
2023/06/22 05:56:44;;;;;;;4.43;2.97;;;19.10;99.90;;;;;;5006999;28;20233;-53
2023/06/22 05:59:12;;;;;;;3.93;2.60;;;19.10;99.90;;;;;;5006800;28;20215;-51
2023/06/22 06:01:39;;;;;;;5.20;2.90;;;19.20;99.90;;;;;;5022801;28;20200;-51
2023/06/22 06:04:08;;;;;;;4.40;2.73;;;19.30;99.90;;;;;;5007210;28;20544;-50
2023/06/22 06:06:36;;;;;;;2.70;2.50;;;19.30;99.90;;;;;;5017797;28;20228;-53
2023/06/22 06:09:04;;;;;;;3.03;2.73;;;19.40;99.90;;;;;;5015590;28;20198;-53
2023/06/22 06:11:31;;;;;;;4.30;2.43;;;19.40;99.90;;;;;;5010536;28;20228;-52
2023/06/22 06:13:57;;;;;;;3.77;2.40;;;19.50;99.90;;;;;;5021732;28;20200;-53
2023/06/22 06:16:24;;;;;;;2.77;2.10;;;19.50;99.90;;;;;;5013788;28;20242;-55
2023/06/22 06:18:53;;;;;;;2.50;2.30;;;19.60;99.90;;;;;;5022378;28;20203;-54
2023/06/22 06:21:21;;;;;;;2.33;2.07;;;19.60;99.90;;;;;;4994836;28;20921;-55
2023/06/22 06:23:48;;;;;;;2.53;2.40;;;19.70;99.90;;;;;;5011026;28;20193;-49
2023/06/22 06:26:16;;;;;;;3.63;2.10;;;19.80;99.90;;;;;;5019809;28;20224;-56
2023/06/22 06:28:43;;;;;;;2.60;2.10;;;19.80;99.90;;;;;;5014846;28;20200;-50
2023/06/22 06:31:12;;;;;;;2.20;2.07;;;19.80;99.90;;;;;;5015100;28;20223;-56
2023/06/22 06:33:39;;;;;;;2.00;1.80;;;19.80;99.90;;;;;;5016925;28;20267;-50
2023/06/22 06:36:08;;;;;;;3.90;1.97;;;19.90;99.90;;;;;;4999399;28;21325;-57
2023/06/22 06:38:36;;;;;;;1.60;1.50;;;19.90;99.90;;;;;;5021416;28;20724;-49
2023/06/22 06:41:03;;;;;;;2.33;2.00;;;19.90;99.90;;;;;;5020109;28;20267;-54
2023/06/22 06:43:30;;;;;;;1.80;1.70;;;19.80;99.90;;;;;;5016846;28;20535;-55
2023/06/22 06:45:57;;;;;;;2.07;1.93;;;19.80;99.90;;;;;;5006634;28;20200;-53
2023/06/22 06:48:23;;;;;;;2.00;1.90;;;19.80;99.90;;;;;;5022173;28;20231;-55
2023/06/22 06:50:50;;;;;;;2.93;1.93;;;19.80;99.90;;;;;;5021142;28;20333;-48
2023/06/22 06:53:17;;;;;;;2.73;2.00;;;19.90;99.90;;;;;;4997855;28;20206;-49
2023/06/22 06:55:46;;;;;;;2.10;1.93;;;19.90;99.90;;;;;;5026158;28;20204;-57
2023/06/22 06:58:13;;;;;;;1.70;1.60;;;20.00;99.90;;;;;;5012233;28;20231;-49
2023/06/22 07:00:40;;;;;;;2.10;1.87;;;20.00;99.90;;;;;;5000565;28;20493;-51
2023/06/22 07:03:07;;;;;;;2.97;2.30;;;20.10;99.90;;;;;;5019131;28;20262;-54
2023/06/22 07:05:34;;;;;;;2.40;1.93;;;20.20;99.90;;;;;;5011100;28;20733;-55
2023/06/22 07:08:01;;;;;;;2.90;2.00;;;20.30;99.90;;;;;;5003918;28;20216;-54
2023/06/22 07:10:29;;;;;;;2.37;2.17;;;20.40;99.90;;;;;;5015631;28;20627;-50
2023/06/22 07:12:57;;;;;;;3.60;2.13;;;20.50;99.90;;;;;;5017916;28;20231;-54
2023/06/22 07:15:24;;;;;;;4.10;2.20;;;20.50;99.90;;;;;;5021952;28;20195;-50
2023/06/22 07:17:51;;;;;;;3.07;2.13;;;20.60;99.90;;;;;;5017300;28;20529;-55
2023/06/22 07:20:19;;;;;;;2.30;2.10;;;20.70;99.90;;;;;;5020317;28;20273;-51
2023/06/22 07:22:46;;;;;;;3.17;2.17;;;20.80;99.90;;;;;;4992282;28;20233;-53
2023/06/22 07:25:15;;;;;;;2.07;1.87;;;20.80;99.90;;;;;;5025246;28;20211;-54
2023/06/22 07:27:46;;;;;;;2.73;2.13;;;20.90;99.90;;;;;;5014755;28;20421;-52
2023/06/22 07:30:14;;;;;;;2.20;2.00;;;21.00;99.90;;;;;;5023714;28;20212;-51
2023/06/22 07:32:42;;;;;;;3.93;2.10;;;21.10;99.90;;;;;;5011335;28;20208;-51
2023/06/22 07:35:09;;;;;;;3.83;2.40;;;21.10;99.90;;;;;;5021652;28;20194;-54
2023/06/22 07:37:36;;;;;;;2.63;2.37;;;21.20;99.90;;;;;;5015262;28;20200;-54
2023/06/22 07:40:06;;;;;;;3.20;2.63;;;21.20;99.90;;;;;;5005061;28;20224;-56
2023/06/22 07:42:33;;;;;;;6.47;2.73;;;21.30;99.90;;;;;;5015168;28;20674;-48
2023/06/22 07:45:01;;;;;;;3.73;3.00;;;21.30;99.90;;;;;;5005212;28;20562;-52
2023/06/22 07:47:29;;;;;;;3.70;2.47;;;21.30;99.90;;;;;;5012915;28;20222;-49
2023/06/22 07:49:57;;;;;;;2.60;2.40;;;21.40;99.90;;;;;;5015051;28;20267;-57
2023/06/22 07:52:34;;;;;;;2.70;2.50;;;21.50;99.90;;;;;;5004552;28;20212;-49
2023/06/22 07:55:02;;;;;;;4.10;2.57;;;21.50;99.90;;;;;;5004384;28;20219;-51
2023/06/22 07:57:33;;;;;;;3.70;2.80;;;21.50;99.90;;;;;;5013360;28;20684;-52
2023/06/22 08:00:00;;;;;;;2.53;2.10;;;21.60;99.90;;;;;;5014827;28;20286;-52
2023/06/22 08:02:28;;;;;;;2.93;2.30;;;21.80;99.90;;;;;;5021493;28;20534;-50
2023/06/22 08:04:55;;;;;;;2.00;1.90;;;21.90;99.90;;;;;;5017182;28;20239;-56
2023/06/22 08:07:22;;;;;;;3.67;2.70;;;21.90;99.90;;;;;;5011760;28;20639;-52
2023/06/22 08:09:49;;;;;;;4.53;2.50;;;22.00;99.90;;;;;;5009297;28;20249;-54
2023/06/22 08:12:17;;;;;;;2.37;2.10;;;22.10;99.90;;;;;;5005198;28;20204;-49
2023/06/22 08:14:45;;;;;;;3.90;2.50;;;22.20;99.90;;;;;;5014238;28;20207;-54
2023/06/22 08:17:13;;;;;;;3.72;2.50;;;22.30;99.90;;;;;;5022614;28;20601;-54
2023/06/22 08:19:41;;;;;;;2.42;1.98;;;22.40;99.90;;;;;;5012418;28;20228;-52
2023/06/22 08:22:08;;;;;;;3.33;2.70;;;22.50;99.90;;;;;;5007208;28;20192;-55
2023/06/22 08:24:35;;;;;;;3.38;2.20;;;22.60;99.90;;;;;;5012660;28;20258;-55
2023/06/22 08:27:02;;;;;;;2.95;2.55;;;22.60;99.90;;;;;;5004489;28;20298;-54
2023/06/22 08:29:29;;;;;;;2.20;2.00;;;22.50;99.90;;;;;;5014978;28;20636;-50
2023/06/22 08:31:55;;;;;;;2.70;2.38;;;22.50;99.90;;;;;;5020163;28;20293;-54
2023/06/22 08:34:27;;;;;;;2.63;2.42;;;22.50;99.90;;;;;;5014016;28;20207;-50
2023/06/22 08:36:56;;;;;;;2.50;2.28;;;22.60;99.90;;;;;;5014806;28;20251;-56
2023/06/22 08:39:22;;;;;;;3.33;2.30;;;22.50;99.90;;;;;;5013700;28;20733;-51
2023/06/22 08:41:49;;;;;;;2.60;2.38;;;22.60;99.90;;;;;;4999099;28;20285;-56
2023/06/22 08:44:19;;;;;;;3.45;2.63;;;22.70;99.90;;;;;;5020737;28;20192;-49
2023/06/22 08:46:46;;;;;;;2.45;1.90;;;22.80;99.90;;;;;;5010525;28;20369;-55
2023/06/22 08:49:13;;;;;;;1.90;1.77;;;23.00;99.90;;;;;;5021967;28;20250;-56
2023/06/22 08:51:40;;;;;;;2.55;2.05;;;23.10;99.90;;;;;;5010787;28;20270;-56
2023/06/22 08:54:08;;;;;;;2.50;1.90;;;23.10;99.90;;;;;;5013533;28;20254;-55
2023/06/22 08:56:35;;;;;;;1.73;1.60;;;23.20;99.90;;;;;;5009663;28;20200;-52
2023/06/22 08:59:02;;;;;;;3.28;2.13;;;23.30;99.90;;;;;;5001475;28;20227;-57
2023/06/22 09:01:29;;;;;;;2.50;2.30;;;23.30;99.90;;;;;;5013564;28;20285;-50
2023/06/22 09:03:57;;;;;;;2.05;1.88;;;23.50;99.90;;;;;;5015917;28;20759;-55
2023/06/22 09:06:24;;;;;;;4.22;2.60;;;23.50;99.90;;;;;;5014093;28;20230;-48
2023/06/22 09:08:51;;;;;;;2.45;2.00;;;23.50;99.90;;;;;;5002155;28;20219;-53
2023/06/22 09:11:19;;;;;;;3.42;1.85;;;23.50;99.90;;;;;;5020354;28;20228;-49
2023/06/22 09:13:47;;;;;;;2.28;2.08;;;23.50;99.90;;;;;;4994370;28;20216;-55
2023/06/22 09:16:14;;;;;;;1.90;1.80;;;23.70;99.90;;;;;;5021173;28;20283;-53
2023/06/22 09:18:41;;;;;;;3.03;2.08;;;23.80;99.90;;;;;;5012554;28;20230;-54
2023/06/22 09:21:08;;;;;;;2.55;1.83;;;23.80;99.90;;;;;;5014219;28;20219;-53
2023/06/22 09:23:35;;;;;;;2.28;2.15;;;23.80;99.90;;;;;;5011816;28;20206;-54
2023/06/22 09:26:03;;;;;;;2.97;2.53;;;23.90;99.90;;;;;;5007514;28;20207;-57
2023/06/22 09:28:33;;;;;;;2.50;2.40;;;24.10;99.90;;;;;;4995251;28;20227;-50
2023/06/22 09:31:00;;;;;;;2.50;2.30;;;24.20;99.90;;;;;;5014619;28;20739;-55
2023/06/22 09:33:27;;;;;;;2.22;2.03;;;24.20;99.90;;;;;;5001397;28;20208;-48
2023/06/22 09:35:54;;;;;;;2.20;2.00;;;24.30;99.90;;;;;;5020969;28;20200;-54
2023/06/22 09:38:21;;;;;;;2.35;2.20;;;24.40;99.90;;;;;;5003246;28;23089;-53
2023/06/22 09:40:48;;;;;;;2.55;2.22;;;24.40;99.40;;;;;;5010870;28;20301;-57
2023/06/22 09:43:14;;;;;;;2.03;1.80;;;24.40;98.90;;;;;;5006180;28;20670;-49
2023/06/22 09:45:43;;;;;;;2.75;2.50;;;24.40;99.00;;;;;;4995419;28;20335;-56
2023/06/22 09:48:10;;;;;;;2.47;2.17;;;24.50;98.90;;;;;;5003375;28;20230;-52
2023/06/22 09:50:37;;;;;;;2.85;2.53;;;24.60;99.10;;;;;;5020856;28;20281;-57
2023/06/22 09:53:04;;;;;;;2.40;2.20;;;24.80;98.70;;;;;;5019285;28;20234;-48
2023/06/22 09:55:31;;;;;;;2.35;1.95;;;24.60;98.40;;;;;;5003523;28;20306;-52
2023/06/22 09:57:57;;;;;;;3.05;2.17;;;24.60;98.90;;;;;;5009156;28;20814;-52
2023/06/22 10:00:26;;;;;;;2.50;2.08;;;24.70;98.40;;;;;;4992786;28;24825;-56
2023/06/22 10:02:55;;;;;;;2.50;2.30;;;24.70;98.20;;;;;;5016975;28;20658;-56
2023/06/22 10:05:22;;;;;;;4.35;2.30;;;24.70;98.20;;;;;;5010530;28;20211;-54
2023/06/22 10:07:49;;;;;;;2.80;2.53;;;24.90;98.30;;;;;;5018098;28;20247;-55
2023/06/22 10:10:16;;;;;;;2.80;2.40;;;25.20;98.10;;;;;;4997713;28;20329;-52
2023/06/22 10:12:46;;;;;;;3.70;2.42;;;25.10;97.20;;;;;;5012687;28;20223;-54
2023/06/22 10:15:13;;;;;;;4.78;2.40;;;25.30;96.90;;;;;;4999305;28;20289;-56
2023/06/22 10:17:39;;;;;;;2.53;2.30;;;25.30;97.00;;;;;;5009697;28;20208;-53
2023/06/22 10:20:12;;;;;;;2.58;2.15;;;25.40;97.70;;;;;;5011443;28;21040;-54
2023/06/22 10:22:40;;;;;;;2.45;2.25;;;25.50;97.20;;;;;;5015170;28;20199;-52
2023/06/22 10:25:08;;;;;;;4.20;2.30;;;25.70;97.10;;;;;;5015362;28;20214;-50
2023/06/22 10:27:35;;;;;;;2.60;2.40;;;25.70;96.30;;;;;;5010572;28;20290;-53
2023/06/22 10:30:02;;;;;;;4.60;2.97;;;25.70;96.40;;;;;;5019131;28;20633;-47
2023/06/22 10:32:29;;;;;;;3.00;2.22;;;25.80;95.90;;;;;;4992841;28;20208;-55
2023/06/22 10:34:56;;;;;;;2.60;2.40;;;26.00;96.00;;;;;;5017122;28;20215;-52
2023/06/22 10:37:24;;;;;;;2.58;2.38;;;26.00;95.70;;;;;;5024463;28;20215;-54
2023/06/22 10:39:51;;;;;;;3.08;2.10;;;26.10;95.80;;;;;;5014662;28;20270;-52
2023/06/22 10:42:18;;;;;;;2.80;2.45;;;26.00;95.90;;;;;;5014155;28;20644;-56
2023/06/22 10:44:45;;;;;;;3.45;2.78;;;26.20;96.00;;;;;;5016192;28;20191;-52
2023/06/22 10:47:12;;;;;;;3.92;2.47;;;26.20;95.40;;;;;;4999390;28;20266;-54
2023/06/22 10:49:39;;;;;;;2.95;2.30;;;26.20;95.30;;;;;;5015555;28;20216;-52
2023/06/22 10:52:07;;;;;;;3.35;2.50;;;26.20;94.90;;;;;;5019287;28;20297;-50
2023/06/22 10:54:36;;;;;;;3.92;3.05;;;26.30;94.80;;;;;;5021778;28;20245;-55
2023/06/22 10:57:03;;;;;;;3.00;2.42;;;26.30;94.30;;;;;;5007494;28;20226;-49
2023/06/22 10:59:30;;;;;;;2.92;2.60;;;26.20;94.70;;;;;;5022539;28;20224;-55
2023/06/22 11:01:58;;;;;;;2.60;2.20;;;26.20;94.80;;;;;;4992399;28;20824;-53
2023/06/22 11:04:25;;;;;;;3.80;2.65;;;26.30;95.00;;;;;;5019855;28;20211;-51
2023/06/22 11:06:52;;;;;;;3.13;2.13;;;26.50;95.00;;;;;;5011855;28;20224;-54
2023/06/22 11:09:21;;;;;;;3.22;2.95;;;26.70;94.90;;;;;;5015359;28;20223;-53
2023/06/22 11:11:50;;;;;;;2.38;2.17;;;26.80;94.20;;;;;;5014773;28;20278;-53
2023/06/22 11:14:17;;;;;;;3.38;3.08;;;26.80;94.20;;;;;;5017513;28;20916;-54
2023/06/22 11:16:44;;;;;;;3.03;2.83;;;26.80;93.50;;;;;;5023658;28;20184;-53
2023/06/22 11:19:11;;;;;;;2.25;2.15;;;26.60;93.40;;;;;;4997767;28;20258;-54
2023/06/22 11:21:38;;;;;;;2.88;2.67;;;26.60;94.50;;;;;;5021629;28;20654;-55
2023/06/22 11:24:05;;;;;;;2.63;2.42;;;26.80;94.20;;;;;;5014580;28;20261;-52
2023/06/22 11:26:32;;;;;;;3.70;2.90;;;27.00;93.90;;;;;;5017714;28;20282;-52
2023/06/22 11:29:04;;;;;;;2.80;2.60;;;27.10;93.50;;;;;;5010883;28;20705;-49
2023/06/22 11:31:31;;;;;;;3.60;2.90;;;27.10;92.90;;;;;;5019985;28;20211;-53
2023/06/22 11:33:58;;;;;;;5.30;3.38;;;27.10;92.70;;;;;;5001080;28;20255;-51
2023/06/22 11:36:26;;;;;;;3.97;3.30;;;26.90;92.10;;;;;;5017774;28;20200;-55
2023/06/22 11:38:53;;;;;;;2.85;2.42;;;26.70;92.40;;;;;;5014588;28;20869;-52
2023/06/22 11:41:20;;;;;;;3.50;3.20;;;26.70;92.50;;;;;;5023310;28;20282;-54
2023/06/22 11:43:47;;;;;;;3.85;3.40;;;26.90;93.00;;;;;;5009859;28;20224;-54
2023/06/22 11:46:15;;;;;;;3.17;2.97;;;27.10;92.30;;;;;;5020053;28;20996;-52
2023/06/22 11:48:42;;;;;;;3.55;2.83;;;27.20;91.90;;;;;;5005808;28;20350;-53
2023/06/22 11:51:09;;;;;;;3.58;3.38;;;27.20;92.20;;;;;;5012052;28;20223;-53
2023/06/22 11:53:36;;;;;;;3.65;3.35;;;27.20;92.00;;;;;;5024772;28;20589;-52
2023/06/22 11:56:03;;;;;;;3.70;3.40;;;27.30;92.40;;;;;;5006666;28;20200;-53
2023/06/22 11:58:30;;;;;;;3.65;3.35;;;27.40;92.60;;;;;;5012706;28;20712;-53
2023/06/22 12:00:57;;;;;;;4.47;4.10;;;27.50;92.40;;;;;;5020837;28;20302;-53
2023/06/22 12:03:25;;;;;;;4.13;3.45;;;27.70;91.50;;;;;;5004640;28;20226;-54
2023/06/22 12:05:52;;;;;;;4.20;3.80;;;27.80;91.00;;;;;;5021452;28;20200;-53
2023/06/22 12:08:19;;;;;;;3.47;3.22;;;27.80;90.80;;;;;;5009145;28;20211;-52
2023/06/22 12:10:46;;;;;;;2.83;2.60;;;27.80;90.90;;;;;;5015489;28;20690;-53
2023/06/22 12:13:13;;;;;;;4.03;3.63;;;27.90;91.60;;;;;;5020366;28;20282;-54
2023/06/22 12:15:40;;;;;;;3.45;3.00;;;27.90;91.40;;;;;;5013269;28;20219;-53
2023/06/22 12:18:08;;;;;;;2.92;2.72;;;27.90;91.30;;;;;;5019517;28;20253;-55
2023/06/22 12:20:37;;;;;;;4.68;3.13;;;27.80;91.40;;;;;;4997145;28;20303;-53
2023/06/22 12:23:03;;;;;;;3.65;3.10;;;27.90;91.30;;;;;;5013346;28;20278;-49
2023/06/22 12:25:30;;;;;;;3.97;3.67;;;27.90;90.90;;;;;;5015373;28;20224;-52
2023/06/22 12:27:57;;;;;;;3.60;3.30;;;27.90;90.70;;;;;;5019723;28;20742;-53
2023/06/22 12:30:24;;;;;;;3.70;3.40;;;27.90;90.30;;;;;;5015357;28;20251;-53
2023/06/22 12:32:51;;;;;;;3.30;3.10;;;28.00;90.30;;;;;;5014551;28;20654;-54
2023/06/22 12:35:18;;;;;;;3.72;3.42;;;28.00;90.30;;;;;;5003026;28;20215;-55
2023/06/22 12:37:46;;;;;;;4.80;2.85;;;27.90;90.40;;;;;;5022280;28;20196;-52
2023/06/22 12:40:13;;;;;;;3.45;3.17;;;27.80;91.00;;;;;;5014990;28;20640;-51
2023/06/22 12:42:41;;;;;;;4.18;3.60;;;27.90;91.10;;;;;;5014005;28;20260;-54
2023/06/22 12:45:10;;;;;;;3.80;3.50;;;28.00;90.90;;;;;;5005256;28;21119;-53
2023/06/22 12:47:37;;;;;;;3.67;3.38;;;28.20;91.40;;;;;;5013845;28;20659;-54
2023/06/22 12:50:05;;;;;;;3.47;3.17;;;28.50;95.70;;;;;;5014645;28;20555;-51